sensor_id;sensor_type;location;lat;lon;timestamp;P1;durP1;ratioP1;P2;durP2;ratioP2
60494;SDS011;46342;49.046;11.920;2023-06-26T00:01:50;5.95;;;4.18;;
60494;SDS011;46342;49.046;11.920;2023-06-26T00:04:16;5.25;;;4.18;;
60494;SDS011;46342;49.046;11.920;2023-06-26T00:06:41;5.85;;;4.10;;
60494;SDS011;46342;49.046;11.920;2023-06-26T00:09:07;5.45;;;4.22;;
60494;SDS011;46342;49.046;11.920;2023-06-26T00:11:33;5.75;;;4.00;;
60494;SDS011;46342;49.046;11.920;2023-06-26T00:13:59;4.88;;;3.63;;
60494;SDS011;46342;49.046;11.920;2023-06-26T00:16:25;4.68;;;3.72;;
60494;SDS011;46342;49.046;11.920;2023-06-26T00:18:52;5.18;;;3.85;;
60494;SDS011;46342;49.046;11.920;2023-06-26T00:21:18;5.82;;;4.47;;
60494;SDS011;46342;49.046;11.920;2023-06-26T00:23:44;5.18;;;4.18;;
60494;SDS011;46342;49.046;11.920;2023-06-26T00:26:10;5.03;;;4.00;;
60494;SDS011;46342;49.046;11.920;2023-06-26T00:28:36;5.40;;;3.97;;
60494;SDS011;46342;49.046;11.920;2023-06-26T00:31:02;5.40;;;3.88;;
60494;SDS011;46342;49.046;11.920;2023-06-26T00:33:27;5.10;;;3.85;;
60494;SDS011;46342;49.046;11.920;2023-06-26T00:35:53;6.10;;;4.15;;
60494;SDS011;46342;49.046;11.920;2023-06-26T00:38:18;7.10;;;4.47;;
60494;SDS011;46342;49.046;11.920;2023-06-26T00:40:44;7.28;;;4.50;;
60494;SDS011;46342;49.046;11.920;2023-06-26T00:43:09;6.65;;;4.25;;
60494;SDS011;46342;49.046;11.920;2023-06-26T00:45:35;5.03;;;4.13;;
60494;SDS011;46342;49.046;11.920;2023-06-26T00:48:01;5.70;;;4.40;;
60494;SDS011;46342;49.046;11.920;2023-06-26T00:50:27;6.00;;;4.20;;
60494;SDS011;46342;49.046;11.920;2023-06-26T00:52:53;5.10;;;4.10;;
60494;SDS011;46342;49.046;11.920;2023-06-26T00:55:25;5.50;;;4.18;;
60494;SDS011;46342;49.046;11.920;2023-06-26T00:57:51;5.32;;;3.97;;
60494;SDS011;46342;49.046;11.920;2023-06-26T01:00:17;6.05;;;4.10;;
60494;SDS011;46342;49.046;11.920;2023-06-26T01:02:43;6.18;;;4.28;;
60494;SDS011;46342;49.046;11.920;2023-06-26T01:05:09;6.13;;;4.30;;
60494;SDS011;46342;49.046;11.920;2023-06-26T01:07:37;6.68;;;4.07;;
60494;SDS011;46342;49.046;11.920;2023-06-26T01:10:04;7.07;;;4.60;;
60494;SDS011;46342;49.046;11.920;2023-06-26T01:12:31;6.10;;;4.22;;
60494;SDS011;46342;49.046;11.920;2023-06-26T01:14:59;7.40;;;4.70;;
60494;SDS011;46342;49.046;11.920;2023-06-26T01:17:25;4.85;;;4.00;;
60494;SDS011;46342;49.046;11.920;2023-06-26T01:19:56;7.32;;;4.47;;
60494;SDS011;46342;49.046;11.920;2023-06-26T01:25:15;5.95;;;4.07;;
60494;SDS011;46342;49.046;11.920;2023-06-26T01:27:48;6.07;;;4.03;;
60494;SDS011;46342;49.046;11.920;2023-06-26T01:30:17;5.07;;;4.10;;
60494;SDS011;46342;49.046;11.920;2023-06-26T01:32:44;6.30;;;4.10;;
60494;SDS011;46342;49.046;11.920;2023-06-26T01:35:10;6.53;;;4.35;;
60494;SDS011;46342;49.046;11.920;2023-06-26T01:37:37;8.43;;;4.30;;
60494;SDS011;46342;49.046;11.920;2023-06-26T01:40:03;5.07;;;4.13;;
60494;SDS011;46342;49.046;11.920;2023-06-26T01:42:31;6.00;;;4.18;;
60494;SDS011;46342;49.046;11.920;2023-06-26T01:44:57;4.50;;;3.75;;
60494;SDS011;46342;49.046;11.920;2023-06-26T01:47:30;5.38;;;4.18;;
60494;SDS011;46342;49.046;11.920;2023-06-26T01:50:06;6.60;;;4.20;;
60494;SDS011;46342;49.046;11.920;2023-06-26T01:52:45;6.43;;;4.32;;
60494;SDS011;46342;49.046;11.920;2023-06-26T01:58:00;5.05;;;4.03;;
60494;SDS011;46342;49.046;11.920;2023-06-26T02:00:26;6.78;;;5.30;;
60494;SDS011;46342;49.046;11.920;2023-06-26T02:02:53;8.57;;;4.50;;
60494;SDS011;46342;49.046;11.920;2023-06-26T02:05:19;6.38;;;3.92;;
60494;SDS011;46342;49.046;11.920;2023-06-26T02:07:45;6.63;;;4.30;;
60494;SDS011;46342;49.046;11.920;2023-06-26T02:10:10;6.18;;;4.22;;
60494;SDS011;46342;49.046;11.920;2023-06-26T02:12:36;5.55;;;4.13;;
60494;SDS011;46342;49.046;11.920;2023-06-26T02:15:02;6.10;;;4.25;;
60494;SDS011;46342;49.046;11.920;2023-06-26T02:17:29;10.80;;;4.63;;
60494;SDS011;46342;49.046;11.920;2023-06-26T02:19:55;5.95;;;4.47;;
60494;SDS011;46342;49.046;11.920;2023-06-26T02:22:20;5.40;;;4.22;;
60494;SDS011;46342;49.046;11.920;2023-06-26T02:24:46;5.57;;;4.32;;
60494;SDS011;46342;49.046;11.920;2023-06-26T02:27:11;7.60;;;4.55;;
60494;SDS011;46342;49.046;11.920;2023-06-26T02:29:37;6.70;;;4.65;;
60494;SDS011;46342;49.046;11.920;2023-06-26T02:32:04;6.10;;;4.00;;
60494;SDS011;46342;49.046;11.920;2023-06-26T02:34:30;7.32;;;4.38;;
60494;SDS011;46342;49.046;11.920;2023-06-26T02:36:56;6.75;;;4.68;;
60494;SDS011;46342;49.046;11.920;2023-06-26T02:39:21;5.25;;;3.67;;
60494;SDS011;46342;49.046;11.920;2023-06-26T02:41:47;5.85;;;4.35;;
60494;SDS011;46342;49.046;11.920;2023-06-26T02:44:13;7.38;;;5.03;;
60494;SDS011;46342;49.046;11.920;2023-06-26T02:46:39;6.97;;;4.30;;
60494;SDS011;46342;49.046;11.920;2023-06-26T02:49:05;7.22;;;4.22;;
60494;SDS011;46342;49.046;11.920;2023-06-26T02:51:32;7.15;;;4.68;;
60494;SDS011;46342;49.046;11.920;2023-06-26T02:53:58;8.23;;;4.80;;
60494;SDS011;46342;49.046;11.920;2023-06-26T02:56:24;5.55;;;4.10;;
60494;SDS011;46342;49.046;11.920;2023-06-26T02:58:54;6.57;;;4.80;;
60494;SDS011;46342;49.046;11.920;2023-06-26T03:01:20;9.05;;;5.03;;
60494;SDS011;46342;49.046;11.920;2023-06-26T03:03:46;8.45;;;5.07;;
60494;SDS011;46342;49.046;11.920;2023-06-26T03:06:12;7.60;;;5.13;;
60494;SDS011;46342;49.046;11.920;2023-06-26T03:08:38;6.32;;;4.63;;
60494;SDS011;46342;49.046;11.920;2023-06-26T03:11:04;7.32;;;4.78;;
60494;SDS011;46342;49.046;11.920;2023-06-26T03:13:36;8.77;;;4.88;;
60494;SDS011;46342;49.046;11.920;2023-06-26T03:16:02;6.80;;;4.47;;
60494;SDS011;46342;49.046;11.920;2023-06-26T03:18:29;7.38;;;4.72;;
60494;SDS011;46342;49.046;11.920;2023-06-26T03:20:55;5.72;;;4.35;;
60494;SDS011;46342;49.046;11.920;2023-06-26T03:23:21;7.33;;;5.03;;
60494;SDS011;46342;49.046;11.920;2023-06-26T03:25:48;6.95;;;4.57;;
60494;SDS011;46342;49.046;11.920;2023-06-26T03:28:14;8.40;;;4.60;;
60494;SDS011;46342;49.046;11.920;2023-06-26T03:30:40;7.93;;;4.72;;
60494;SDS011;46342;49.046;11.920;2023-06-26T03:33:06;7.53;;;4.68;;
60494;SDS011;46342;49.046;11.920;2023-06-26T03:35:31;7.03;;;4.75;;
60494;SDS011;46342;49.046;11.920;2023-06-26T03:37:57;8.25;;;5.22;;
60494;SDS011;46342;49.046;11.920;2023-06-26T03:40:23;8.98;;;5.25;;
60494;SDS011;46342;49.046;11.920;2023-06-26T03:42:49;7.22;;;4.63;;
60494;SDS011;46342;49.046;11.920;2023-06-26T03:45:15;7.85;;;5.20;;
60494;SDS011;46342;49.046;11.920;2023-06-26T03:47:40;6.20;;;4.78;;
60494;SDS011;46342;49.046;11.920;2023-06-26T03:50:06;7.70;;;4.75;;
60494;SDS011;46342;49.046;11.920;2023-06-26T03:52:32;6.80;;;4.75;;
60494;SDS011;46342;49.046;11.920;2023-06-26T03:54:57;7.95;;;4.75;;
60494;SDS011;46342;49.046;11.920;2023-06-26T03:57:23;7.07;;;4.82;;
60494;SDS011;46342;49.046;11.920;2023-06-26T03:59:49;7.72;;;5.05;;
60494;SDS011;46342;49.046;11.920;2023-06-26T04:02:15;7.88;;;4.78;;
60494;SDS011;46342;49.046;11.920;2023-06-26T04:04:41;5.72;;;4.40;;
60494;SDS011;46342;49.046;11.920;2023-06-26T04:07:06;8.15;;;4.47;;
60494;SDS011;46342;49.046;11.920;2023-06-26T04:09:32;7.47;;;5.03;;
60494;SDS011;46342;49.046;11.920;2023-06-26T04:11:57;5.97;;;4.50;;
60494;SDS011;46342;49.046;11.920;2023-06-26T04:14:23;6.72;;;4.72;;
60494;SDS011;46342;49.046;11.920;2023-06-26T04:16:48;9.25;;;4.95;;
60494;SDS011;46342;49.046;11.920;2023-06-26T04:19:14;8.90;;;5.35;;
60494;SDS011;46342;49.046;11.920;2023-06-26T04:21:40;6.15;;;4.47;;
60494;SDS011;46342;49.046;11.920;2023-06-26T04:24:05;6.75;;;4.43;;
60494;SDS011;46342;49.046;11.920;2023-06-26T04:26:31;5.82;;;4.50;;
60494;SDS011;46342;49.046;11.920;2023-06-26T04:28:57;8.23;;;5.22;;
60494;SDS011;46342;49.046;11.920;2023-06-26T04:31:22;6.75;;;4.75;;
60494;SDS011;46342;49.046;11.920;2023-06-26T04:33:48;8.55;;;4.90;;
60494;SDS011;46342;49.046;11.920;2023-06-26T04:36:19;10.35;;;4.93;;
60494;SDS011;46342;49.046;11.920;2023-06-26T04:38:45;7.32;;;4.90;;
60494;SDS011;46342;49.046;11.920;2023-06-26T04:41:10;7.80;;;4.60;;
60494;SDS011;46342;49.046;11.920;2023-06-26T04:43:36;8.38;;;5.15;;
60494;SDS011;46342;49.046;11.920;2023-06-26T04:46:02;6.65;;;4.53;;
60494;SDS011;46342;49.046;11.920;2023-06-26T04:48:28;5.18;;;3.88;;
60494;SDS011;46342;49.046;11.920;2023-06-26T04:50:56;5.80;;;4.10;;
60494;SDS011;46342;49.046;11.920;2023-06-26T04:53:21;4.93;;;3.60;;
60494;SDS011;46342;49.046;11.920;2023-06-26T04:55:48;6.80;;;4.50;;
60494;SDS011;46342;49.046;11.920;2023-06-26T04:58:15;8.23;;;4.27;;
60494;SDS011;46342;49.046;11.920;2023-06-26T05:00:41;8.98;;;5.25;;
60494;SDS011;46342;49.046;11.920;2023-06-26T05:03:10;7.13;;;4.90;;
60494;SDS011;46342;49.046;11.920;2023-06-26T05:05:37;7.68;;;5.10;;
60494;SDS011;46342;49.046;11.920;2023-06-26T05:08:20;9.13;;;5.80;;
60494;SDS011;46342;49.046;11.920;2023-06-26T05:10:46;8.82;;;5.40;;
60494;SDS011;46342;49.046;11.920;2023-06-26T05:13:12;9.02;;;6.00;;
60494;SDS011;46342;49.046;11.920;2023-06-26T05:15:40;16.10;;;6.53;;
60494;SDS011;46342;49.046;11.920;2023-06-26T05:18:07;9.48;;;5.90;;
60494;SDS011;46342;49.046;11.920;2023-06-26T05:20:33;6.40;;;4.80;;
60494;SDS011;46342;49.046;11.920;2023-06-26T05:22:59;10.70;;;5.90;;
60494;SDS011;46342;49.046;11.920;2023-06-26T05:25:29;7.43;;;5.07;;
60494;SDS011;46342;49.046;11.920;2023-06-26T05:27:56;10.10;;;6.22;;
60494;SDS011;46342;49.046;11.920;2023-06-26T05:30:22;8.75;;;5.85;;
60494;SDS011;46342;49.046;11.920;2023-06-26T05:32:50;10.68;;;7.22;;
60494;SDS011;46342;49.046;11.920;2023-06-26T05:35:16;13.02;;;6.60;;
60494;SDS011;46342;49.046;11.920;2023-06-26T05:37:45;10.70;;;7.00;;
60494;SDS011;46342;49.046;11.920;2023-06-26T05:40:12;10.50;;;6.43;;
60494;SDS011;46342;49.046;11.920;2023-06-26T05:42:38;10.40;;;6.50;;
60494;SDS011;46342;49.046;11.920;2023-06-26T05:45:04;8.88;;;6.35;;
60494;SDS011;46342;49.046;11.920;2023-06-26T05:47:30;10.52;;;7.15;;
60494;SDS011;46342;49.046;11.920;2023-06-26T05:49:56;9.10;;;6.20;;
60494;SDS011;46342;49.046;11.920;2023-06-26T05:52:21;12.50;;;6.35;;
60494;SDS011;46342;49.046;11.920;2023-06-26T05:54:47;9.65;;;6.22;;
60494;SDS011;46342;49.046;11.920;2023-06-26T05:57:13;10.00;;;6.55;;
60494;SDS011;46342;49.046;11.920;2023-06-26T05:59:40;11.15;;;6.85;;
60494;SDS011;46342;49.046;11.920;2023-06-26T06:02:07;10.07;;;6.65;;
60494;SDS011;46342;49.046;11.920;2023-06-26T06:04:33;10.60;;;6.63;;
60494;SDS011;46342;49.046;11.920;2023-06-26T06:07:00;11.25;;;5.78;;
60494;SDS011;46342;49.046;11.920;2023-06-26T06:09:25;10.13;;;6.47;;
60494;SDS011;46342;49.046;11.920;2023-06-26T06:11:51;13.43;;;7.15;;
60494;SDS011;46342;49.046;11.920;2023-06-26T06:14:16;10.30;;;6.70;;
60494;SDS011;46342;49.046;11.920;2023-06-26T06:16:42;8.60;;;5.93;;
60494;SDS011;46342;49.046;11.920;2023-06-26T06:19:08;9.52;;;6.80;;
60494;SDS011;46342;49.046;11.920;2023-06-26T06:21:36;11.45;;;6.35;;
60494;SDS011;46342;49.046;11.920;2023-06-26T06:24:01;9.57;;;6.60;;
60494;SDS011;46342;49.046;11.920;2023-06-26T06:26:28;9.27;;;5.90;;
60494;SDS011;46342;49.046;11.920;2023-06-26T06:28:53;11.40;;;6.97;;
60494;SDS011;46342;49.046;11.920;2023-06-26T06:31:19;10.32;;;6.55;;
60494;SDS011;46342;49.046;11.920;2023-06-26T06:33:45;7.82;;;5.60;;
60494;SDS011;46342;49.046;11.920;2023-06-26T06:36:10;9.65;;;5.82;;
60494;SDS011;46342;49.046;11.920;2023-06-26T06:38:36;9.00;;;6.10;;
60494;SDS011;46342;49.046;11.920;2023-06-26T06:41:01;9.52;;;6.05;;
60494;SDS011;46342;49.046;11.920;2023-06-26T06:43:27;9.80;;;6.32;;
60494;SDS011;46342;49.046;11.920;2023-06-26T06:45:52;8.35;;;6.13;;
60494;SDS011;46342;49.046;11.920;2023-06-26T06:48:18;8.98;;;5.95;;
60494;SDS011;46342;49.046;11.920;2023-06-26T06:50:43;10.35;;;5.75;;
60494;SDS011;46342;49.046;11.920;2023-06-26T06:53:09;8.93;;;6.10;;
60494;SDS011;46342;49.046;11.920;2023-06-26T06:55:35;8.45;;;5.90;;
60494;SDS011;46342;49.046;11.920;2023-06-26T06:58:00;7.78;;;5.30;;
60494;SDS011;46342;49.046;11.920;2023-06-26T07:00:26;11.20;;;5.95;;
60494;SDS011;46342;49.046;11.920;2023-06-26T07:02:52;9.13;;;5.38;;
60494;SDS011;46342;49.046;11.920;2023-06-26T07:05:18;10.25;;;5.68;;
60494;SDS011;46342;49.046;11.920;2023-06-26T07:07:43;7.80;;;5.57;;
60494;SDS011;46342;49.046;11.920;2023-06-26T07:10:11;7.78;;;5.63;;
60494;SDS011;46342;49.046;11.920;2023-06-26T07:12:38;7.47;;;5.57;;
60494;SDS011;46342;49.046;11.920;2023-06-26T07:15:04;7.20;;;5.82;;
60494;SDS011;46342;49.046;11.920;2023-06-26T07:17:31;7.75;;;6.05;;
60494;SDS011;46342;49.046;11.920;2023-06-26T07:19:57;6.17;;;5.23;;
60494;SDS011;46342;49.046;11.920;2023-06-26T07:22:24;9.18;;;5.45;;
60494;SDS011;46342;49.046;11.920;2023-06-26T07:24:49;9.38;;;5.93;;
60494;SDS011;46342;49.046;11.920;2023-06-26T07:27:15;10.07;;;5.75;;
60494;SDS011;46342;49.046;11.920;2023-06-26T07:29:41;6.47;;;4.72;;
60494;SDS011;46342;49.046;11.920;2023-06-26T07:32:07;9.18;;;5.53;;
60494;SDS011;46342;49.046;11.920;2023-06-26T07:34:33;8.45;;;5.78;;
60494;SDS011;46342;49.046;11.920;2023-06-26T07:36:58;8.00;;;5.63;;
60494;SDS011;46342;49.046;11.920;2023-06-26T07:39:24;7.85;;;5.28;;
60494;SDS011;46342;49.046;11.920;2023-06-26T07:41:50;9.05;;;5.43;;
60494;SDS011;46342;49.046;11.920;2023-06-26T07:44:15;8.20;;;5.22;;
60494;SDS011;46342;49.046;11.920;2023-06-26T07:46:41;7.93;;;5.43;;
60494;SDS011;46342;49.046;11.920;2023-06-26T07:49:06;10.02;;;5.28;;
60494;SDS011;46342;49.046;11.920;2023-06-26T07:51:32;6.50;;;4.82;;
60494;SDS011;46342;49.046;11.920;2023-06-26T07:53:57;7.75;;;4.45;;
60494;SDS011;46342;49.046;11.920;2023-06-26T07:56:23;6.28;;;4.88;;
60494;SDS011;46342;49.046;11.920;2023-06-26T07:58:48;6.90;;;4.57;;
60494;SDS011;46342;49.046;11.920;2023-06-26T08:01:14;9.13;;;5.43;;
60494;SDS011;46342;49.046;11.920;2023-06-26T08:03:39;7.03;;;4.50;;
60494;SDS011;46342;49.046;11.920;2023-06-26T08:06:05;6.22;;;4.47;;
60494;SDS011;46342;49.046;11.920;2023-06-26T08:08:31;5.70;;;4.55;;
60494;SDS011;46342;49.046;11.920;2023-06-26T08:10:56;6.30;;;4.30;;
60494;SDS011;46342;49.046;11.920;2023-06-26T08:13:22;7.18;;;4.88;;
60494;SDS011;46342;49.046;11.920;2023-06-26T08:15:48;5.70;;;4.60;;
60494;SDS011;46342;49.046;11.920;2023-06-26T08:18:13;6.07;;;4.43;;
60494;SDS011;46342;49.046;11.920;2023-06-26T08:20:39;5.25;;;3.85;;
60494;SDS011;46342;49.046;11.920;2023-06-26T08:23:04;6.38;;;4.05;;
60494;SDS011;46342;49.046;11.920;2023-06-26T08:25:30;4.53;;;3.72;;
60494;SDS011;46342;49.046;11.920;2023-06-26T08:27:56;6.85;;;4.00;;
60494;SDS011;46342;49.046;11.920;2023-06-26T08:30:21;4.90;;;3.88;;
60494;SDS011;46342;49.046;11.920;2023-06-26T08:32:48;5.15;;;3.70;;
60494;SDS011;46342;49.046;11.920;2023-06-26T08:35:13;5.05;;;3.58;;
60494;SDS011;46342;49.046;11.920;2023-06-26T08:37:39;5.15;;;4.10;;
60494;SDS011;46342;49.046;11.920;2023-06-26T08:40:05;4.75;;;3.90;;
60494;SDS011;46342;49.046;11.920;2023-06-26T08:42:31;5.65;;;3.50;;
60494;SDS011;46342;49.046;11.920;2023-06-26T08:44:57;5.95;;;3.85;;
60494;SDS011;46342;49.046;11.920;2023-06-26T08:47:23;5.20;;;3.85;;
60494;SDS011;46342;49.046;11.920;2023-06-26T08:52:30;6.90;;;4.60;;
60494;SDS011;46342;49.046;11.920;2023-06-26T08:55:01;5.50;;;3.80;;
60494;SDS011;46342;49.046;11.920;2023-06-26T08:57:31;5.85;;;4.03;;
60494;SDS011;46342;49.046;11.920;2023-06-26T08:59:57;5.18;;;4.05;;
60494;SDS011;46342;49.046;11.920;2023-06-26T09:02:23;6.20;;;4.68;;
60494;SDS011;46342;49.046;11.920;2023-06-26T09:04:49;4.60;;;4.00;;
60494;SDS011;46342;49.046;11.920;2023-06-26T09:07:16;4.55;;;3.45;;
60494;SDS011;46342;49.046;11.920;2023-06-26T09:09:42;5.90;;;3.53;;
60494;SDS011;46342;49.046;11.920;2023-06-26T09:12:08;5.15;;;3.90;;
60494;SDS011;46342;49.046;11.920;2023-06-26T09:14:34;5.00;;;3.90;;
60494;SDS011;46342;49.046;11.920;2023-06-26T09:17:00;14.80;;;4.32;;
60494;SDS011;46342;49.046;11.920;2023-06-26T09:19:25;5.82;;;3.92;;
60494;SDS011;46342;49.046;11.920;2023-06-26T09:21:52;5.88;;;4.55;;
60494;SDS011;46342;49.046;11.920;2023-06-26T09:24:17;5.25;;;4.07;;
60494;SDS011;46342;49.046;11.920;2023-06-26T09:26:43;7.65;;;6.03;;
60494;SDS011;46342;49.046;11.920;2023-06-26T09:29:09;6.13;;;4.88;;
60494;SDS011;46342;49.046;11.920;2023-06-26T09:31:38;4.95;;;3.90;;
60494;SDS011;46342;49.046;11.920;2023-06-26T09:34:04;6.72;;;4.45;;
60494;SDS011;46342;49.046;11.920;2023-06-26T09:36:31;5.63;;;4.53;;
60494;SDS011;46342;49.046;11.920;2023-06-26T09:38:58;4.20;;;3.78;;
60494;SDS011;46342;49.046;11.920;2023-06-26T09:41:29;6.97;;;4.53;;
60494;SDS011;46342;49.046;11.920;2023-06-26T09:43:56;5.50;;;4.07;;
60494;SDS011;46342;49.046;11.920;2023-06-26T09:46:29;5.40;;;3.63;;
60494;SDS011;46342;49.046;11.920;2023-06-26T09:48:59;5.05;;;4.55;;
60494;SDS011;46342;49.046;11.920;2023-06-26T09:51:37;5.97;;;4.30;;
60494;SDS011;46342;49.046;11.920;2023-06-26T09:54:04;5.20;;;4.40;;
60494;SDS011;46342;49.046;11.920;2023-06-26T09:56:31;5.18;;;3.85;;
60494;SDS011;46342;49.046;11.920;2023-06-26T09:58:58;4.72;;;3.58;;
60494;SDS011;46342;49.046;11.920;2023-06-26T10:01:26;6.63;;;3.97;;
60494;SDS011;46342;49.046;11.920;2023-06-26T10:03:52;4.85;;;4.20;;
60494;SDS011;46342;49.046;11.920;2023-06-26T10:06:19;4.80;;;4.13;;
60494;SDS011;46342;49.046;11.920;2023-06-26T10:09:19;5.20;;;4.70;;
60494;SDS011;46342;49.046;11.920;2023-06-26T10:12:19;5.93;;;4.35;;
60494;SDS011;46342;49.046;11.920;2023-06-26T10:14:42;5.47;;;4.40;;
60494;SDS011;46342;49.046;11.920;2023-06-26T10:17:09;5.28;;;4.53;;
60494;SDS011;46342;49.046;11.920;2023-06-26T10:19:37;5.43;;;3.60;;
60494;SDS011;46342;49.046;11.920;2023-06-26T10:22:04;4.90;;;3.90;;
60494;SDS011;46342;49.046;11.920;2023-06-26T10:24:31;5.25;;;4.10;;
60494;SDS011;46342;49.046;11.920;2023-06-26T10:27:01;5.20;;;4.30;;
60494;SDS011;46342;49.046;11.920;2023-06-26T10:29:29;5.50;;;3.92;;
60494;SDS011;46342;49.046;11.920;2023-06-26T10:31:57;5.35;;;4.55;;
60494;SDS011;46342;49.046;11.920;2023-06-26T10:34:25;4.55;;;3.70;;
60494;SDS011;46342;49.046;11.920;2023-06-26T10:37:00;6.03;;;4.70;;
60494;SDS011;46342;49.046;11.920;2023-06-26T10:39:31;8.50;;;4.32;;
60494;SDS011;46342;49.046;11.920;2023-06-26T10:42:20;4.50;;;3.72;;
60494;SDS011;46342;49.046;11.920;2023-06-26T10:45:08;4.50;;;3.67;;
60494;SDS011;46342;49.046;11.920;2023-06-26T10:47:36;4.37;;;3.57;;
60494;SDS011;46342;49.046;11.920;2023-06-26T10:50:20;3.92;;;3.53;;
60494;SDS011;46342;49.046;11.920;2023-06-26T10:55:37;6.20;;;3.60;;
60494;SDS011;46342;49.046;11.920;2023-06-26T10:58:06;4.07;;;3.63;;
60494;SDS011;46342;49.046;11.920;2023-06-26T11:00:52;3.83;;;3.45;;
60494;SDS011;46342;49.046;11.920;2023-06-26T11:03:24;4.20;;;3.67;;
60494;SDS011;46342;49.046;11.920;2023-06-26T11:06:08;3.58;;;3.22;;
60494;SDS011;46342;49.046;11.920;2023-06-26T11:08:47;5.22;;;3.85;;
60494;SDS011;46342;49.046;11.920;2023-06-26T11:11:14;4.65;;;3.50;;
60494;SDS011;46342;49.046;11.920;2023-06-26T11:13:40;4.47;;;4.00;;
60494;SDS011;46342;49.046;11.920;2023-06-26T11:16:07;4.00;;;3.45;;
60494;SDS011;46342;49.046;11.920;2023-06-26T11:18:33;4.32;;;3.90;;
60494;SDS011;46342;49.046;11.920;2023-06-26T11:21:08;5.20;;;4.18;;
60494;SDS011;46342;49.046;11.920;2023-06-26T11:23:36;4.78;;;4.25;;
60494;SDS011;46342;49.046;11.920;2023-06-26T11:26:18;5.10;;;4.03;;
60494;SDS011;46342;49.046;11.920;2023-06-26T11:28:51;4.57;;;3.72;;
60494;SDS011;46342;49.046;11.920;2023-06-26T11:31:27;4.82;;;4.03;;
60494;SDS011;46342;49.046;11.920;2023-06-26T11:33:57;5.63;;;4.20;;
60494;SDS011;46342;49.046;11.920;2023-06-26T11:36:24;4.68;;;4.18;;
60494;SDS011;46342;49.046;11.920;2023-06-26T11:38:57;5.63;;;3.95;;
60494;SDS011;46342;49.046;11.920;2023-06-26T11:41:25;5.43;;;3.97;;
60494;SDS011;46342;49.046;11.920;2023-06-26T11:43:52;5.20;;;3.92;;
60494;SDS011;46342;49.046;11.920;2023-06-26T11:46:19;4.18;;;3.60;;
60494;SDS011;46342;49.046;11.920;2023-06-26T11:48:45;5.00;;;3.92;;
60494;SDS011;46342;49.046;11.920;2023-06-26T11:51:12;7.95;;;3.30;;
60494;SDS011;46342;49.046;11.920;2023-06-26T11:53:40;4.25;;;3.33;;
60494;SDS011;46342;49.046;11.920;2023-06-26T11:56:13;4.45;;;3.78;;
60494;SDS011;46342;49.046;11.920;2023-06-26T11:58:56;4.47;;;3.85;;
60494;SDS011;46342;49.046;11.920;2023-06-26T12:01:22;5.38;;;3.88;;
60494;SDS011;46342;49.046;11.920;2023-06-26T12:03:49;4.82;;;3.80;;
60494;SDS011;46342;49.046;11.920;2023-06-26T12:06:15;5.45;;;4.20;;
60494;SDS011;46342;49.046;11.920;2023-06-26T12:08:41;5.30;;;3.88;;
60494;SDS011;46342;49.046;11.920;2023-06-26T12:11:08;5.68;;;3.85;;
60494;SDS011;46342;49.046;11.920;2023-06-26T12:13:34;3.63;;;3.33;;
60494;SDS011;46342;49.046;11.920;2023-06-26T12:16:00;3.58;;;3.22;;
60494;SDS011;46342;49.046;11.920;2023-06-26T12:18:25;4.55;;;3.40;;
60494;SDS011;46342;49.046;11.920;2023-06-26T12:20:57;3.28;;;2.97;;
60494;SDS011;46342;49.046;11.920;2023-06-26T12:23:23;4.20;;;3.15;;
60494;SDS011;46342;49.046;11.920;2023-06-26T12:25:49;3.17;;;2.83;;
60494;SDS011;46342;49.046;11.920;2023-06-26T12:28:17;3.58;;;2.85;;
60494;SDS011;46342;49.046;11.920;2023-06-26T12:30:46;3.72;;;3.03;;
60494;SDS011;46342;49.046;11.920;2023-06-26T12:33:13;4.57;;;3.58;;
60494;SDS011;46342;49.046;11.920;2023-06-26T12:35:40;3.20;;;2.90;;
60494;SDS011;46342;49.046;11.920;2023-06-26T12:38:07;3.47;;;3.17;;
60494;SDS011;46342;49.046;11.920;2023-06-26T12:40:35;4.00;;;3.38;;
60494;SDS011;46342;49.046;11.920;2023-06-26T12:43:11;3.95;;;3.55;;
60494;SDS011;46342;49.046;11.920;2023-06-26T12:45:37;4.50;;;3.22;;
60494;SDS011;46342;49.046;11.920;2023-06-26T12:48:13;5.70;;;3.60;;
60494;SDS011;46342;49.046;11.920;2023-06-26T12:50:47;3.35;;;3.05;;
60494;SDS011;46342;49.046;11.920;2023-06-26T12:53:15;4.25;;;3.15;;
60494;SDS011;46342;49.046;11.920;2023-06-26T12:55:41;4.13;;;3.60;;
60494;SDS011;46342;49.046;11.920;2023-06-26T12:58:06;3.87;;;3.47;;
60494;SDS011;46342;49.046;11.920;2023-06-26T13:00:32;3.93;;;3.50;;
60494;SDS011;46342;49.046;11.920;2023-06-26T13:02:58;3.30;;;2.97;;
60494;SDS011;46342;49.046;11.920;2023-06-26T13:05:24;4.33;;;3.27;;
60494;SDS011;46342;49.046;11.920;2023-06-26T13:07:50;4.03;;;2.80;;
60494;SDS011;46342;49.046;11.920;2023-06-26T13:10:15;5.13;;;3.53;;
60494;SDS011;46342;49.046;11.920;2023-06-26T13:12:41;3.13;;;2.65;;
60494;SDS011;46342;49.046;11.920;2023-06-26T13:15:07;5.63;;;3.30;;
60494;SDS011;46342;49.046;11.920;2023-06-26T13:17:33;3.42;;;3.13;;
60494;SDS011;46342;49.046;11.920;2023-06-26T13:19:59;3.50;;;3.20;;
60494;SDS011;46342;49.046;11.920;2023-06-26T13:22:24;3.40;;;2.80;;
60494;SDS011;46342;49.046;11.920;2023-06-26T13:24:50;3.27;;;2.97;;
60494;SDS011;46342;49.046;11.920;2023-06-26T13:27:21;3.70;;;3.20;;
60494;SDS011;46342;49.046;11.920;2023-06-26T13:29:47;3.45;;;2.78;;
60494;SDS011;46342;49.046;11.920;2023-06-26T13:32:12;4.63;;;2.63;;
60494;SDS011;46342;49.046;11.920;2023-06-26T13:34:38;3.47;;;3.00;;
60494;SDS011;46342;49.046;11.920;2023-06-26T13:37:03;3.40;;;3.10;;
60494;SDS011;46342;49.046;11.920;2023-06-26T13:39:29;3.37;;;3.07;;
60494;SDS011;46342;49.046;11.920;2023-06-26T13:41:55;3.07;;;2.77;;
60494;SDS011;46342;49.046;11.920;2023-06-26T13:44:20;4.13;;;2.97;;
60494;SDS011;46342;49.046;11.920;2023-06-26T13:46:46;3.00;;;2.70;;
60494;SDS011;46342;49.046;11.920;2023-06-26T13:49:11;2.63;;;2.43;;
60494;SDS011;46342;49.046;11.920;2023-06-26T13:51:37;3.00;;;2.73;;
60494;SDS011;46342;49.046;11.920;2023-06-26T13:54:03;3.30;;;3.00;;
60494;SDS011;46342;49.046;11.920;2023-06-26T13:56:28;3.50;;;3.00;;
60494;SDS011;46342;49.046;11.920;2023-06-26T13:58:55;4.32;;;3.10;;
60494;SDS011;46342;49.046;11.920;2023-06-26T14:01:21;3.77;;;2.93;;
60494;SDS011;46342;49.046;11.920;2023-06-26T14:03:46;2.87;;;2.53;;
60494;SDS011;46342;49.046;11.920;2023-06-26T14:06:12;3.00;;;2.70;;
60494;SDS011;46342;49.046;11.920;2023-06-26T14:08:37;3.33;;;3.03;;
60494;SDS011;46342;49.046;11.920;2023-06-26T14:11:03;3.57;;;3.00;;
60494;SDS011;46342;49.046;11.920;2023-06-26T14:13:28;3.27;;;2.83;;
60494;SDS011;46342;49.046;11.920;2023-06-26T14:15:54;2.63;;;2.43;;
60494;SDS011;46342;49.046;11.920;2023-06-26T14:18:21;2.55;;;2.28;;
60494;SDS011;46342;49.046;11.920;2023-06-26T14:20:48;3.47;;;2.88;;
60494;SDS011;46342;49.046;11.920;2023-06-26T14:23:14;3.30;;;2.80;;
60494;SDS011;46342;49.046;11.920;2023-06-26T14:25:39;2.60;;;2.40;;
60494;SDS011;46342;49.046;11.920;2023-06-26T14:28:05;2.93;;;2.63;;
60494;SDS011;46342;49.046;11.920;2023-06-26T14:30:30;3.67;;;3.10;;
60494;SDS011;46342;49.046;11.920;2023-06-26T14:32:56;3.00;;;2.70;;
60494;SDS011;46342;49.046;11.920;2023-06-26T14:35:21;4.43;;;2.77;;
60494;SDS011;46342;49.046;11.920;2023-06-26T14:37:47;3.63;;;2.90;;
60494;SDS011;46342;49.046;11.920;2023-06-26T14:40:13;3.20;;;2.78;;
60494;SDS011;46342;49.046;11.920;2023-06-26T14:42:39;3.50;;;2.87;;
60494;SDS011;46342;49.046;11.920;2023-06-26T14:45:05;3.70;;;2.90;;